Time;durP1;ratioP1;P1;durP2;ratioP2;P2;SDS_P1;SDS_P2;PMS_P1;PMS_P2;Temp;Humidity;BMP_temperature;BMP_pressure;BME280_temperature;BME280_humidity;BME280_pressure;Samples;Min_cycle;Max_cycle;Signal;HPM_P1;HPM_P2
2022/07/21 00:01:33;;;;;;;7.33;6.73;;;;;;;23.70;70.50;100633.84;5047966;28;20405;-73
2022/07/21 00:03:59;;;;;;;7.70;6.90;;;;;;;23.50;70.91;100623.44;5045760;28;20505;-73
2022/07/21 00:06:24;;;;;;;8.40;6.87;;;;;;;23.44;71.02;100611.75;5045720;28;20489;-73
2022/07/21 00:08:49;;;;;;;7.17;6.43;;;;;;;23.35;71.15;100618.41;5044115;28;20451;-73
2022/07/21 00:11:15;;;;;;;7.43;6.30;;;;;;;23.32;71.29;100619.03;5044900;28;20406;-73
2022/07/21 00:13:40;;;;;;;6.83;5.80;;;;;;;23.49;71.10;100610.75;5046814;28;20466;-73
2022/07/21 00:16:06;;;;;;;7.30;6.00;;;;;;;23.64;70.44;100622.16;5044460;28;20405;-73
2022/07/21 00:18:31;;;;;;;6.40;5.80;;;;;;;23.67;70.13;100621.47;5046117;28;20449;-73
2022/07/21 00:20:57;;;;;;;6.53;5.93;;;;;;;23.67;69.98;100624.25;5046416;28;20411;-73
2022/07/21 00:23:23;;;;;;;6.55;5.95;;;;;;;23.58;70.52;100623.44;5046556;28;20463;-73
2022/07/21 00:25:50;;;;;;;7.43;5.80;;;;;;;23.59;70.51;100632.53;5045914;28;20433;-72
2022/07/21 00:28:15;;;;;;;9.93;6.28;;;;;;;23.45;70.72;100640.19;5038142;28;20439;-73
2022/07/21 00:30:40;;;;;;;9.47;6.00;;;;;;;23.37;71.04;100635.47;5035787;28;20414;-73
2022/07/21 00:33:06;;;;;;;6.63;5.93;;;;;;;23.34;70.95;100648.00;5042245;28;20523;-73
2022/07/21 00:35:31;;;;;;;6.93;6.00;;;;;;;23.33;70.89;100645.53;5039898;28;20769;-73
2022/07/21 00:37:56;;;;;;;6.68;5.90;;;;;;;23.26;70.87;100651.56;5043304;28;20421;-73
2022/07/21 00:40:22;;;;;;;6.82;5.43;;;;;;;23.19;71.41;100651.22;5040752;28;20534;-73
2022/07/21 00:42:47;;;;;;;7.37;6.03;;;;;;;23.26;71.01;100654.31;5039474;28;20550;-73
2022/07/21 00:45:12;;;;;;;7.07;6.37;;;;;;;23.33;71.07;100653.84;5039005;28;20405;-73
2022/07/21 00:47:38;;;;;;;7.93;6.20;;;;;;;23.33;70.80;100660.19;5042052;28;20402;-73
2022/07/21 00:50:07;;;;;;;7.57;6.83;;;;;;;23.24;70.80;100648.31;5046866;28;20416;-73
2022/07/21 00:52:33;;;;;;;7.82;6.72;;;;;;;23.19;71.43;100654.00;5039360;28;20894;-72
2022/07/21 00:54:58;;;;;;;8.90;6.27;;;;;;;23.16;71.21;100661.00;5044034;28;20486;-73
2022/07/21 00:57:24;;;;;;;9.00;6.63;;;;;;;23.13;71.16;100658.88;5041938;28;20409;-73
2022/07/21 00:59:49;;;;;;;6.67;6.07;;;;;;;23.09;71.24;100651.53;5043987;28;20772;-73
2022/07/21 01:02:15;;;;;;;8.93;6.80;;;;;;;23.01;71.82;100655.94;5038733;28;20748;-73
2022/07/21 01:04:41;;;;;;;8.10;6.83;;;;;;;23.06;71.82;100643.91;5047711;28;20405;-73
2022/07/21 01:07:06;;;;;;;7.20;6.45;;;;;;;23.19;71.19;100659.53;5034833;28;20425;-73
2022/07/21 01:09:33;;;;;;;7.57;6.80;;;;;;;23.27;70.79;100656.78;5045710;28;20789;-73
2022/07/21 01:11:59;;;;;;;7.53;6.35;;;;;;;23.26;70.88;100649.63;5042910;28;20477;-74
2022/07/21 01:14:25;;;;;;;7.20;6.40;;;;;;;23.11;71.13;100646.53;5047256;28;20413;-73
2022/07/21 01:16:50;;;;;;;7.30;6.70;;;;;;;22.94;71.80;100663.06;5044632;28;20508;-73
2022/07/21 01:19:15;;;;;;;6.97;6.23;;;;;;;22.98;71.70;100669.59;5046425;28;20424;-73
2022/07/21 01:21:43;;;;;;;7.57;6.77;;;;;;;23.06;71.18;100664.06;5041923;28;21163;-73
2022/07/21 01:24:09;;;;;;;7.57;6.80;;;;;;;23.00;71.57;100667.31;5064752;28;20890;-73
2022/07/21 01:26:49;;;;;;;8.77;6.90;;;;;;;22.94;71.76;100669.41;5043511;28;20488;-73
2022/07/21 01:29:16;;;;;;;7.93;7.07;;;;;;;22.84;72.21;100668.91;5039222;28;20481;-73
2022/07/21 01:31:44;;;;;;;7.20;6.53;;;;;;;22.87;72.26;100679.31;5038177;28;20933;-73
2022/07/21 01:34:11;;;;;;;7.80;6.97;;;;;;;22.85;72.25;100674.13;5038363;28;20411;-73
2022/07/21 01:36:37;;;;;;;8.15;7.15;;;;;;;22.86;72.36;100664.69;5048571;28;20987;-73
2022/07/21 01:41:48;;;;;;;8.38;6.63;;;;;;;23.09;71.70;100676.41;5042903;28;20414;-73
2022/07/21 01:44:14;;;;;;;8.23;6.43;;;;;;;23.07;71.73;100687.00;5042977;28;20594;-73
2022/07/21 01:46:50;;;;;;;7.55;6.82;;;;;;;23.10;71.51;100689.13;5040500;28;20895;-74
2022/07/21 01:49:16;;;;;;;7.47;6.72;;;;;;;23.18;71.29;100678.06;5034241;28;20411;-73
2022/07/21 01:51:42;;;;;;;7.30;6.57;;;;;;;23.27;70.93;100691.91;5044391;28;20436;-73
2022/07/21 01:54:09;;;;;;;7.27;6.57;;;;;;;23.16;71.17;100691.41;5042255;28;20492;-73
2022/07/21 01:56:35;;;;;;;9.27;6.70;;;;;;;23.22;70.93;100686.53;5034738;28;20418;-73
2022/07/21 01:59:01;;;;;;;7.22;6.32;;;;;;;23.13;71.17;100694.81;5049605;28;20786;-73
2022/07/21 02:01:28;;;;;;;7.05;6.32;;;;;;;23.05;71.63;100697.56;5043941;28;20487;-73
2022/07/21 02:03:56;;;;;;;6.25;5.75;;;;;;;23.10;71.38;100700.16;5041832;28;20514;-73
2022/07/21 02:06:21;;;;;;;7.20;6.40;;;;;;;23.12;71.32;100704.25;5046960;28;20432;-73
2022/07/21 02:08:47;;;;;;;6.63;5.97;;;;;;;23.05;71.62;100705.88;5044657;28;20412;-73
2022/07/21 02:11:13;;;;;;;6.93;5.93;;;;;;;23.00;71.93;100709.59;5044071;28;20411;-73
2022/07/21 02:13:39;;;;;;;7.28;6.03;;;;;;;23.11;71.44;100704.56;5045940;28;20420;-73
2022/07/21 02:16:05;;;;;;;6.60;6.00;;;;;;;23.09;71.22;100713.19;5038439;28;20494;-73
2022/07/21 02:18:30;;;;;;;6.07;5.53;;;;;;;23.09;71.31;100717.88;5040414;28;20497;-73
2022/07/21 02:20:56;;;;;;;6.97;5.90;;;;;;;23.15;71.09;100716.63;5040402;28;20906;-73
2022/07/21 02:23:22;;;;;;;10.03;7.00;;;;;;;23.07;71.57;100721.00;5039649;28;20493;-73
2022/07/21 02:25:49;;;;;;;6.47;5.88;;;;;;;23.01;71.67;100716.75;5046386;28;20432;-73
2022/07/21 02:28:14;;;;;;;7.60;6.70;;;;;;;22.98;71.83;100722.94;5044567;28;20795;-73
2022/07/21 02:30:39;;;;;;;6.37;5.77;;;;;;;23.03;71.84;100727.47;5043977;28;20461;-73
2022/07/21 02:33:05;;;;;;;6.20;5.70;;;;;;;23.06;71.61;100724.06;5047689;28;20416;-74
2022/07/21 02:35:31;;;;;;;7.03;5.57;;;;;;;23.08;71.54;100719.88;5046888;28;20810;-73
2022/07/21 02:37:56;;;;;;;6.85;6.20;;;;;;;23.08;71.41;100716.28;5044845;28;20934;-73
2022/07/21 02:40:22;;;;;;;6.53;5.93;;;;;;;23.09;71.51;100715.13;5044839;28;20506;-73
2022/07/21 02:42:47;;;;;;;7.28;6.53;;;;;;;23.08;71.75;100724.56;5043174;28;20438;-73
2022/07/21 02:45:12;;;;;;;6.80;6.03;;;;;;;23.10;71.47;100719.53;5045679;28;20807;-73
2022/07/21 02:47:51;;;;;;;8.17;6.57;;;;;;;23.12;71.61;100720.00;5042466;28;20405;-73
2022/07/21 02:50:18;;;;;;;7.00;6.40;;;;;;;23.22;71.16;100719.69;5046773;28;20402;-74
2022/07/21 02:52:44;;;;;;;9.50;6.70;;;;;;;23.24;71.19;100721.03;5041714;28;20407;-73
2022/07/21 02:55:09;;;;;;;9.95;7.60;;;;;;;23.13;71.29;100716.94;5051310;28;20734;-73
2022/07/21 02:57:35;;;;;;;7.53;6.83;;;;;;;23.13;71.55;100724.41;5051162;28;20908;-73
2022/07/21 03:00:00;;;;;;;8.80;7.20;;;;;;;23.09;71.72;100715.94;5050328;28;20957;-73
2022/07/21 03:02:26;;;;;;;7.90;7.20;;;;;;;23.15;71.57;100727.69;5049130;28;20428;-74
2022/07/21 03:04:51;;;;;;;8.30;7.33;;;;;;;23.20;71.15;100727.53;5049839;28;20448;-74
2022/07/21 03:07:17;;;;;;;7.37;6.77;;;;;;;23.29;70.92;100708.97;5041481;28;20451;-73
2022/07/21 03:09:42;;;;;;;9.07;7.27;;;;;;;23.36;70.75;100723.16;5047875;28;20575;-73
2022/07/21 03:12:07;;;;;;;10.10;7.37;;;;;;;23.36;70.49;100717.63;5047588;28;20419;-73
2022/07/21 03:14:33;;;;;;;8.17;7.30;;;;;;;23.46;69.78;100719.28;5045281;28;20425;-73
2022/07/21 03:17:00;;;;;;;8.10;7.03;;;;;;;23.48;69.72;100725.31;5042606;28;20962;-73
2022/07/21 03:19:25;;;;;;;8.38;7.25;;;;;;;23.41;70.39;100722.22;5046125;28;20911;-74
2022/07/21 03:21:51;;;;;;;7.97;7.27;;;;;;;23.41;70.45;100714.75;5042878;28;20418;-73
2022/07/21 03:24:16;;;;;;;8.80;7.50;;;;;;;23.46;70.31;100722.03;5049403;28;20430;-73
2022/07/21 03:26:41;;;;;;;9.37;7.20;;;;;;;23.41;70.32;100724.97;5045496;28;20409;-73
2022/07/21 03:29:06;;;;;;;8.93;7.83;;;;;;;23.30;70.88;100726.38;5041280;28;20428;-73
2022/07/21 03:31:32;;;;;;;8.03;7.33;;;;;;;23.22;70.92;100730.75;5046991;28;20415;-74
2022/07/21 03:33:57;;;;;;;8.63;7.83;;;;;;;23.32;70.83;100733.22;5041014;28;20500;-73
2022/07/21 03:36:22;;;;;;;8.93;8.07;;;;;;;23.32;70.91;100744.28;5045420;28;20764;-74
2022/07/21 03:38:49;;;;;;;9.47;8.40;;;;;;;23.32;70.72;100737.94;5042622;28;20432;-73
2022/07/21 03:41:14;;;;;;;9.32;8.30;;;;;;;23.23;70.95;100744.28;5036616;28;20824;-73
2022/07/21 03:43:40;;;;;;;11.17;9.53;;;;;;;23.18;71.05;100747.19;5040318;28;20499;-73
2022/07/21 03:46:05;;;;;;;11.73;9.47;;;;;;;23.25;70.88;100746.72;5040862;28;20477;-74
2022/07/21 03:48:30;;;;;;;10.23;8.97;;;;;;;23.32;70.83;100751.75;5048661;28;20415;-73
2022/07/21 03:50:55;;;;;;;11.27;10.03;;;;;;;23.19;71.08;100742.47;5041944;28;20888;-74
2022/07/21 03:53:21;;;;;;;11.40;9.63;;;;;;;23.15;71.20;100753.34;5050442;28;20409;-73
2022/07/21 03:55:46;;;;;;;13.13;9.90;;;;;;;23.10;71.27;100749.94;5044678;28;20413;-73
2022/07/21 03:58:11;;;;;;;11.83;9.80;;;;;;;23.12;71.46;100748.47;5038790;28;20429;-73
2022/07/21 04:00:42;;;;;;;10.03;9.10;;;;;;;23.11;70.97;100755.16;5044829;28;20500;-74
2022/07/21 04:03:08;;;;;;;11.10;9.68;;;;;;;23.04;71.57;100749.28;5043464;28;20834;-74
2022/07/21 04:05:36;;;;;;;10.07;9.07;;;;;;;23.15;71.13;100749.81;5047302;28;20408;-73
2022/07/21 04:08:02;;;;;;;9.75;8.65;;;;;;;23.25;70.45;100752.25;5044844;28;20405;-73
2022/07/21 04:10:32;;;;;;;12.38;9.73;;;;;;;23.18;71.01;100749.16;5044078;28;20408;-74
2022/07/21 04:12:59;;;;;;;10.00;9.10;;;;;;;23.16;71.11;100754.19;5034604;28;20441;-74
2022/07/21 04:15:24;;;;;;;14.80;9.65;;;;;;;23.13;70.99;100749.28;5036300;28;20406;-74
2022/07/21 04:17:50;;;;;;;10.27;8.90;;;;;;;23.15;71.05;100747.03;5031788;28;20419;-74
2022/07/21 04:20:16;;;;;;;12.43;9.35;;;;;;;23.11;71.31;100746.88;5044859;28;20414;-74
2022/07/21 04:22:43;;;;;;;10.30;9.40;;;;;;;23.15;71.22;100753.34;5045297;28;20415;-74
2022/07/21 04:25:09;;;;;;;14.07;9.43;;;;;;;23.25;70.67;100744.75;5044524;28;20408;-74
2022/07/21 04:27:36;;;;;;;9.52;8.63;;;;;;;23.29;70.95;100747.69;5038863;28;20452;-74
2022/07/21 04:30:02;;;;;;;10.90;9.57;;;;;;;23.31;70.55;100750.16;5032021;28;20495;-74
2022/07/21 04:32:27;;;;;;;9.47;8.53;;;;;;;23.27;70.60;100748.03;5035091;28;20442;-74
2022/07/21 04:34:53;;;;;;;11.80;10.63;;;;;;;23.33;70.52;100748.69;5032233;28;20893;-74
2022/07/21 04:37:18;;;;;;;10.20;9.30;;;;;;;23.37;70.23;100744.16;5031332;28;20931;-74
2022/07/21 04:39:43;;;;;;;9.93;8.93;;;;;;;23.41;69.91;100744.34;5032141;28;20803;-74
2022/07/21 04:42:09;;;;;;;13.47;10.13;;;;;;;23.42;69.95;100755.06;5031089;28;20762;-74
2022/07/21 04:44:34;;;;;;;11.93;10.07;;;;;;;23.48;69.76;100744.69;5028538;28;20425;-74
2022/07/21 04:46:59;;;;;;;11.97;10.40;;;;;;;23.53;69.82;100752.81;5031299;28;20494;-74
2022/07/21 04:49:24;;;;;;;11.93;10.13;;;;;;;23.53;69.88;100753.63;5032077;28;20411;-74
2022/07/21 04:51:50;;;;;;;11.57;10.37;;;;;;;23.52;69.99;100759.47;5036707;28;20979;-74
2022/07/21 04:54:15;;;;;;;12.27;10.23;;;;;;;23.47;70.06;100756.88;5029865;28;20473;-74
2022/07/21 04:56:42;;;;;;;13.53;9.97;;;;;;;23.46;70.17;100769.88;5043214;28;20413;-74
2022/07/21 04:59:08;;;;;;;12.63;10.27;;;;;;;23.40;70.36;100778.63;5026219;28;20435;-75
2022/07/21 05:01:33;;;;;;;10.88;9.82;;;;;;;23.43;70.27;100780.78;5031773;28;20403;-75
2022/07/21 05:03:58;;;;;;;12.02;9.82;;;;;;;23.39;70.39;100785.28;5027643;28;20488;-75
2022/07/21 05:06:23;;;;;;;11.50;10.30;;;;;;;23.38;70.49;100791.97;5026798;28;20497;-74
2022/07/21 05:08:50;;;;;;;12.10;10.90;;;;;;;23.39;70.73;100788.88;5027444;28;20469;-74
2022/07/21 05:11:15;;;;;;;11.00;9.88;;;;;;;23.40;70.66;100796.06;5045732;28;20411;-74
2022/07/21 05:13:40;;;;;;;11.20;10.03;;;;;;;23.38;70.59;100797.50;5030399;28;20429;-75
2022/07/21 05:16:05;;;;;;;11.80;9.73;;;;;;;23.32;70.78;100796.81;5027106;28;20414;-74
2022/07/21 05:18:31;;;;;;;11.37;9.50;;;;;;;23.28;70.89;100795.88;5028552;28;20422;-74
2022/07/21 05:20:57;;;;;;;12.80;10.13;;;;;;;23.33;70.75;100801.22;5018493;28;20414;-74
2022/07/21 05:23:22;;;;;;;10.83;9.73;;;;;;;23.43;70.28;100798.19;5018561;28;20425;-74
2022/07/21 05:25:47;;;;;;;11.03;10.00;;;;;;;23.50;69.64;100794.94;5027224;28;20855;-74
2022/07/21 05:28:13;;;;;;;11.77;10.27;;;;;;;23.47;69.89;100792.84;5024450;28;20419;-74
2022/07/21 05:30:38;;;;;;;11.13;9.93;;;;;;;23.51;69.70;100794.63;5027115;28;20418;-74
2022/07/21 05:33:03;;;;;;;10.73;9.50;;;;;;;23.50;69.55;100798.53;5018080;28;20411;-74
2022/07/21 05:35:29;;;;;;;11.73;10.30;;;;;;;23.45;69.87;100792.31;5030539;28;20421;-74
2022/07/21 05:37:54;;;;;;;12.73;10.30;;;;;;;23.37;70.18;100801.41;5040482;28;20428;-73
2022/07/21 05:40:19;;;;;;;11.57;10.37;;;;;;;23.38;69.97;100792.78;5023080;28;20413;-73
2022/07/21 05:42:44;;;;;;;10.50;9.40;;;;;;;23.43;70.00;100797.38;5029930;28;20407;-74
2022/07/21 05:45:11;;;;;;;10.13;9.10;;;;;;;23.46;69.82;100789.25;5021458;28;20414;-74
2022/07/21 05:47:37;;;;;;;11.63;9.95;;;;;;;23.57;69.48;100793.34;5029951;28;20940;-74
2022/07/21 05:50:03;;;;;;;12.63;10.77;;;;;;;23.71;68.81;100782.94;5029428;28;20419;-73
2022/07/21 05:52:28;;;;;;;11.45;10.32;;;;;;;23.82;68.36;100785.38;5031027;28;20963;-74
2022/07/21 05:54:54;;;;;;;13.40;11.30;;;;;;;23.84;68.25;100783.94;5029881;28;20419;-74
2022/07/21 05:57:19;;;;;;;15.93;10.93;;;;;;;23.86;68.11;100791.91;5032204;28;20426;-74
2022/07/21 05:59:45;;;;;;;10.77;9.67;;;;;;;23.79;68.40;100781.31;5032971;28;20399;-74
2022/07/21 06:02:11;;;;;;;12.20;10.87;;;;;;;23.75;68.40;100781.16;5050727;28;20391;-74
2022/07/21 06:04:36;;;;;;;13.85;10.90;;;;;;;23.71;68.30;100782.13;5031775;28;20417;-74
2022/07/21 06:07:01;;;;;;;13.27;11.87;;;;;;;23.73;68.87;100785.38;5033805;28;20466;-74
2022/07/21 06:09:26;;;;;;;12.40;10.97;;;;;;;23.75;68.79;100783.91;5029517;28;20480;-74
2022/07/21 06:11:52;;;;;;;13.97;11.90;;;;;;;23.76;68.96;100787.50;5026518;28;20438;-74
2022/07/21 06:14:17;;;;;;;16.27;11.40;;;;;;;23.74;69.19;100785.03;5029915;28;20453;-74
2022/07/21 06:16:43;;;;;;;12.10;10.90;;;;;;;23.67;69.27;100795.81;5023803;28;20430;-74
2022/07/21 06:19:08;;;;;;;11.53;9.80;;;;;;;23.64;69.31;100799.22;5032698;28;20517;-76
2022/07/21 06:21:34;;;;;;;11.67;10.30;;;;;;;23.48;70.13;100795.25;5027383;28;20901;-75
2022/07/21 06:23:59;;;;;;;12.33;9.57;;;;;;;23.56;70.31;100801.97;5049427;28;20395;-74
2022/07/21 06:26:25;;;;;;;11.38;9.52;;;;;;;23.55;70.37;100801.13;5049713;28;20464;-74
2022/07/21 06:28:50;;;;;;;11.50;10.10;;;;;;;23.59;70.25;100796.59;5030927;28;20470;-74
2022/07/21 06:31:16;;;;;;;10.20;8.77;;;;;;;23.71;69.61;100799.53;5033916;28;20878;-74
2022/07/21 06:33:41;;;;;;;11.07;9.40;;;;;;;23.90;69.38;100801.19;5065950;28;20415;-74
2022/07/21 06:36:08;;;;;;;11.43;9.50;;;;;;;24.01;68.44;100803.28;5045894;28;20860;-74
2022/07/21 06:38:34;;;;;;;10.48;8.50;;;;;;;24.01;68.53;100808.81;5031434;28;20992;-74
2022/07/21 06:40:59;;;;;;;11.55;9.23;;;;;;;24.11;68.14;100810.44;5031233;28;20498;-74
2022/07/21 06:43:25;;;;;;;12.50;9.53;;;;;;;24.20;67.48;100811.31;5033463;28;20434;-74
2022/07/21 06:45:53;;;;;;;10.07;9.07;;;;;;;24.18;67.31;100817.16;5034513;28;20395;-74
2022/07/21 06:48:18;;;;;;;10.10;9.10;;;;;;;24.18;67.75;100814.38;5023448;28;20699;-74
2022/07/21 06:50:44;;;;;;;9.47;8.60;;;;;;;24.18;67.74;100816.34;5033224;28;20407;-74
2022/07/21 06:53:09;;;;;;;10.27;8.70;;;;;;;24.10;67.54;100812.41;5029169;28;20403;-74
2022/07/21 06:55:35;;;;;;;10.67;9.27;;;;;;;24.03;68.04;100814.03;5027747;28;20429;-74
2022/07/21 06:58:18;;;;;;;11.82;8.57;;;;;;;24.04;68.17;100816.47;5031034;28;20419;-74
2022/07/21 07:00:45;;;;;;;8.75;7.90;;;;;;;24.08;67.98;100820.22;5031800;28;20789;-74
2022/07/21 07:03:11;;;;;;;8.48;7.40;;;;;;;24.13;67.60;100824.81;5021085;28;20490;-74
2022/07/21 07:05:36;;;;;;;11.80;7.45;;;;;;;24.18;67.09;100827.41;5031528;28;20418;-74
2022/07/21 07:08:02;;;;;;;8.30;7.50;;;;;;;24.30;66.59;100830.34;5032399;28;20505;-74
2022/07/21 07:10:28;;;;;;;8.15;7.40;;;;;;;24.36;66.41;100825.47;5033140;28;20761;-74
2022/07/21 07:12:54;;;;;;;8.80;7.90;;;;;;;24.28;66.67;100830.69;5028798;28;20403;-74
2022/07/21 07:15:22;;;;;;;8.50;7.60;;;;;;;24.28;66.52;100827.09;5017835;28;20498;-74
2022/07/21 07:17:47;;;;;;;8.35;7.47;;;;;;;24.33;65.91;100821.41;5032364;28;20418;-74
2022/07/21 07:20:12;;;;;;;7.97;7.27;;;;;;;24.33;66.27;100837.19;5030182;28;20496;-74
2022/07/21 07:22:38;;;;;;;7.37;6.77;;;;;;;24.47;65.72;100841.41;5030702;28;20770;-74
2022/07/21 07:25:04;;;;;;;8.27;7.33;;;;;;;24.49;65.58;100839.13;5029280;28;20422;-74
2022/07/21 07:27:29;;;;;;;8.95;7.22;;;;;;;24.42;66.00;100830.50;5026563;28;20981;-74
2022/07/21 07:29:54;;;;;;;9.00;7.40;;;;;;;24.44;65.51;100841.22;5025919;28;20523;-74
2022/07/21 07:32:20;;;;;;;8.23;7.40;;;;;;;24.45;65.12;100834.56;5023360;28;20438;-74
